Time;durP1;ratioP1;P1;durP2;ratioP2;P2;SDS_P1;SDS_P2;PMS_P1;PMS_P2;Temp;Humidity;BMP_temperature;BMP_pressure;BME280_temperature;BME280_humidity;BME280_pressure;Samples;Min_cycle;Max_cycle;Signal;HPM_P1;HPM_P2
2024/04/13 00:01:26;;;;;;;12.23;8.73;;;10.50;95.80;;;;;;5278156;27;20243;-94
2024/04/13 00:03:54;;;;;;;11.27;9.10;;;10.50;95.50;;;;;;5294501;27;20308;-93
2024/04/13 00:06:21;;;;;;;10.73;8.85;;;10.40;95.60;;;;;;5263400;27;20236;-94
2024/04/13 00:08:50;;;;;;;14.88;9.35;;;10.40;95.80;;;;;;5265894;27;20295;-94
2024/04/13 00:11:15;;;;;;;12.07;9.00;;;10.30;95.80;;;;;;5269302;27;20306;-94
2024/04/13 00:13:44;;;;;;;14.32;8.85;;;10.40;95.80;;;;;;5257327;27;20850;-94
2024/04/13 00:16:10;;;;;;;13.75;9.10;;;10.30;95.80;;;;;;5271877;27;20299;-94
2024/04/13 00:18:41;;;;;;;17.00;8.80;;;10.30;95.80;;;;;;5265378;27;20349;-94
2024/04/13 00:21:09;;;;;;;14.40;8.73;;;10.30;96.30;;;;;;5256447;27;20259;-94
2024/04/13 00:23:39;;;;;;;9.75;8.75;;;10.30;96.50;;;;;;5252981;27;20607;-94
2024/04/13 00:26:06;;;;;;;11.23;8.63;;;10.20;96.30;;;;;;5267436;27;20238;-93
2024/04/13 00:28:35;;;;;;;12.70;8.48;;;10.20;96.30;;;;;;5265171;27;20231;-94
2024/04/13 00:31:02;;;;;;;9.38;7.90;;;10.20;96.40;;;;;;5266589;27;20291;-94
2024/04/13 00:33:31;;;;;;;10.60;7.88;;;10.30;96.20;;;;;;5271070;27;20274;-94
2024/04/13 00:36:00;;;;;;;10.38;8.43;;;10.30;96.00;;;;;;5280087;26;20709;-94
2024/04/13 00:38:29;;;;;;;10.60;7.80;;;10.30;95.80;;;;;;5262464;27;20275;-94
2024/04/13 00:40:55;;;;;;;9.63;8.00;;;10.30;95.80;;;;;;5271561;27;20239;-94
2024/04/13 00:43:25;;;;;;;10.73;8.07;;;10.30;95.80;;;;;;5274662;27;20297;-94
2024/04/13 00:45:55;;;;;;;10.93;8.05;;;10.20;95.80;;;;;;5269744;27;20270;-93
2024/04/13 00:48:25;;;;;;;9.30;7.68;;;10.20;95.80;;;;;;5271773;27;20608;-94
2024/04/13 00:50:58;;;;;;;215.60;184.80;;;10.20;96.00;;;;;;5270668;27;20256;-94
2024/04/13 00:53:33;;;;;;;76.72;56.40;;;10.20;96.40;;;;;;5263608;27;20281;-93
2024/04/13 00:56:06;;;;;;;9.48;8.10;;;10.20;96.60;;;;;;5270532;27;20267;-94
2024/04/13 00:58:38;;;;;;;13.07;11.00;;;10.30;96.10;;;;;;5264665;27;20249;-94
2024/04/13 01:01:05;;;;;;;12.48;7.82;;;10.20;95.80;;;;;;5272644;27;20266;-94
2024/04/13 01:03:35;;;;;;;11.02;7.72;;;10.20;96.20;;;;;;5272449;27;20236;-94
2024/04/13 01:06:01;;;;;;;8.75;7.82;;;10.20;96.60;;;;;;5268385;27;20244;-94
2024/04/13 01:08:34;;;;;;;8.88;8.00;;;10.10;96.70;;;;;;5274938;27;20239;-94
2024/04/13 01:11:00;;;;;;;13.35;8.07;;;10.10;96.60;;;;;;5261206;27;20620;-94
2024/04/13 01:13:29;;;;;;;8.20;7.40;;;10.20;96.40;;;;;;5273997;27;20286;-94
2024/04/13 01:15:58;;;;;;;8.80;7.57;;;10.10;96.20;;;;;;5265484;27;20371;-94
2024/04/13 01:18:27;;;;;;;7.70;6.90;;;10.10;96.20;;;;;;5264618;26;20690;-94
2024/04/13 01:20:53;;;;;;;11.68;7.32;;;10.10;96.40;;;;;;5268273;27;20299;-94
2024/04/13 01:23:24;;;;;;;12.30;7.43;;;10.00;96.30;;;;;;5268200;27;20267;-94
2024/04/13 01:25:54;;;;;;;9.02;7.03;;;10.00;96.50;;;;;;5275017;27;20359;-93
2024/04/13 01:28:23;;;;;;;7.82;6.97;;;9.90;97.10;;;;;;5277803;26;20266;-94
2024/04/13 01:30:50;;;;;;;11.40;7.15;;;9.90;97.40;;;;;;5281813;27;20232;-94
2024/04/13 01:33:19;;;;;;;7.95;7.18;;;9.90;97.60;;;;;;5273192;27;20247;-94
2024/04/13 01:35:44;;;;;;;9.95;6.63;;;9.90;97.70;;;;;;5277425;27;20294;-94
2024/04/13 01:38:13;;;;;;;9.43;7.30;;;9.90;98.10;;;;;;5273172;27;20350;-93
2024/04/13 01:40:39;;;;;;;10.23;7.80;;;9.90;98.00;;;;;;5269020;27;20247;-93
2024/04/13 01:43:11;;;;;;;10.43;7.20;;;9.80;98.00;;;;;;5261783;27;20249;-94
2024/04/13 01:45:37;;;;;;;8.93;6.95;;;9.80;98.20;;;;;;5271710;27;20325;-94
2024/04/13 01:48:06;;;;;;;7.93;7.10;;;9.80;98.10;;;;;;5270071;26;20264;-93
2024/04/13 01:50:32;;;;;;;10.70;6.90;;;9.80;98.10;;;;;;5268447;27;20287;-93
2024/04/13 01:53:01;;;;;;;8.88;7.15;;;9.70;98.20;;;;;;5265202;27;20249;-93
2024/04/13 01:55:26;;;;;;;10.05;6.95;;;9.70;98.40;;;;;;5277758;27;20307;-92
2024/04/13 01:57:56;;;;;;;9.60;6.80;;;9.70;98.40;;;;;;5265249;27;20339;-93
2024/04/13 02:00:24;;;;;;;7.40;6.70;;;9.70;98.40;;;;;;5268519;27;20239;-93
2024/04/13 02:02:53;;;;;;;6.85;6.10;;;9.70;98.30;;;;;;5261461;27;20240;-94
2024/04/13 02:05:19;;;;;;;11.70;7.18;;;9.60;98.40;;;;;;5275299;27;20287;-94
2024/04/13 02:07:48;;;;;;;8.55;6.55;;;9.60;98.50;;;;;;5271807;27;20301;-93
2024/04/13 02:10:15;;;;;;;8.43;6.47;;;9.60;98.50;;;;;;5275367;27;20247;-94
2024/04/13 02:12:43;;;;;;;7.57;6.68;;;9.60;98.60;;;;;;5271885;27;20232;-93
2024/04/13 02:15:09;;;;;;;7.70;6.93;;;9.50;98.60;;;;;;5255102;27;20296;-93
2024/04/13 02:17:41;;;;;;;8.00;6.40;;;9.50;98.80;;;;;;5269671;27;20240;-93
2024/04/13 02:20:07;;;;;;;11.30;6.90;;;9.50;98.90;;;;;;5279319;27;20299;-94
2024/04/13 02:22:35;;;;;;;10.55;6.60;;;9.40;99.10;;;;;;5270898;27;20291;-93
2024/04/13 02:25:02;;;;;;;8.43;6.90;;;9.40;99.30;;;;;;5276202;27;20844;-93
2024/04/13 02:27:33;;;;;;;9.57;6.60;;;9.30;99.50;;;;;;5266061;27;20257;-93
2024/04/13 02:29:59;;;;;;;8.23;6.75;;;9.30;99.80;;;;;;5259654;27;20240;-93
2024/04/13 02:32:28;;;;;;;8.20;6.43;;;9.30;99.90;;;;;;5270448;27;20573;-94
2024/04/13 02:34:57;;;;;;;11.15;6.78;;;9.30;99.90;;;;;;5258435;27;20241;-93
2024/04/13 02:37:26;;;;;;;9.00;6.60;;;9.30;99.90;;;;;;5277296;27;20233;-93
2024/04/13 02:39:53;;;;;;;8.45;6.40;;;9.30;99.90;;;;;;5259115;27;20398;-93
2024/04/13 02:42:23;;;;;;;9.80;6.90;;;9.30;99.90;;;;;;5268031;27;20253;-93
2024/04/13 02:44:49;;;;;;;7.18;6.40;;;9.20;99.90;;;;;;5277034;27;20283;-93
2024/04/13 02:47:17;;;;;;;9.57;6.35;;;9.20;99.90;;;;;;5277861;27;20244;-93
2024/04/13 02:49:43;;;;;;;10.63;6.18;;;9.20;99.90;;;;;;5279036;27;20330;-93
2024/04/13 02:52:15;;;;;;;9.93;6.57;;;9.20;99.90;;;;;;5272474;27;20244;-93
2024/04/13 02:54:41;;;;;;;8.65;6.88;;;9.20;99.90;;;;;;5271643;27;20341;-93
2024/04/13 02:57:09;;;;;;;7.45;6.60;;;9.20;99.90;;;;;;5267021;26;20357;-93
2024/04/13 02:59:36;;;;;;;8.80;6.32;;;9.20;99.90;;;;;;5274773;27;20351;-93
2024/04/13 03:02:04;;;;;;;11.23;6.65;;;9.20;99.90;;;;;;5265419;27;20270;-93
2024/04/13 03:04:31;;;;;;;7.60;6.22;;;9.20;99.90;;;;;;5268735;26;20378;-93
2024/04/13 03:07:02;;;;;;;7.43;6.13;;;9.10;99.90;;;;;;5269540;27;20281;-93
2024/04/13 03:09:31;;;;;;;9.75;6.18;;;9.20;99.90;;;;;;5272106;27;20239;-93
2024/04/13 03:11:59;;;;;;;8.82;6.38;;;9.20;99.90;;;;;;5276130;27;20232;-93
2024/04/13 03:14:27;;;;;;;8.30;6.03;;;9.20;99.90;;;;;;5263683;27;20314;-93
2024/04/13 03:16:56;;;;;;;7.38;6.07;;;9.20;99.90;;;;;;5279468;27;20244;-93
2024/04/13 03:19:22;;;;;;;8.82;6.53;;;9.20;99.90;;;;;;5269504;27;20286;-93
2024/04/13 03:21:50;;;;;;;8.77;6.47;;;9.20;99.90;;;;;;5276003;27;20342;-93
2024/04/13 03:24:16;;;;;;;10.23;6.90;;;9.30;99.90;;;;;;5268371;27;20235;-93
2024/04/13 03:26:48;;;;;;;8.52;6.28;;;9.30;99.90;;;;;;5285483;26;20315;-93
2024/04/13 03:29:18;;;;;;;7.90;6.05;;;9.30;99.90;;;;;;5270044;27;20239;-93
2024/04/13 03:31:47;;;;;;;9.75;6.25;;;9.30;99.90;;;;;;5269231;27;20282;-93
2024/04/13 03:34:13;;;;;;;6.82;6.18;;;9.40;99.90;;;;;;5261912;27;20236;-93
2024/04/13 03:36:43;;;;;;;7.07;6.20;;;9.50;99.90;;;;;;5270920;27;20242;-93
2024/04/13 03:39:21;;;;;;;7.82;6.18;;;9.50;99.90;;;;;;5259977;27;20294;-93
2024/04/13 03:41:53;;;;;;;7.90;6.20;;;9.50;99.90;;;;;;5270208;27;20624;-93
2024/04/13 03:44:22;;;;;;;7.63;5.95;;;9.50;99.90;;;;;;5279282;27;20235;-93
2024/04/13 03:46:48;;;;;;;8.57;6.05;;;9.50;99.90;;;;;;5270093;27;21076;-92
2024/04/13 03:49:17;;;;;;;9.82;6.25;;;9.50;99.90;;;;;;5268416;27;20337;-93
2024/04/13 03:51:43;;;;;;;6.47;5.78;;;9.50;99.90;;;;;;5270665;27;20278;-93
2024/04/13 03:54:12;;;;;;;6.50;5.47;;;9.50;99.90;;;;;;5266308;27;20295;-93
2024/04/13 03:56:38;;;;;;;6.70;5.80;;;9.50;99.90;;;;;;5277076;27;21051;-93
2024/04/13 03:59:10;;;;;;;7.55;5.93;;;9.40;99.90;;;;;;5287673;26;20751;-93
2024/04/13 04:01:36;;;;;;;6.72;5.82;;;9.40;99.90;;;;;;5267072;27;20287;-93
2024/04/13 04:04:05;;;;;;;6.25;5.65;;;9.40;99.90;;;;;;5258674;27;20243;-94
2024/04/13 04:06:32;;;;;;;6.85;5.70;;;9.30;99.90;;;;;;5271629;27;20307;-93
2024/04/13 04:09:01;;;;;;;7.88;6.15;;;9.20;99.90;;;;;;5275479;27;20275;-93
2024/04/13 04:11:27;;;;;;;8.10;5.95;;;9.20;99.90;;;;;;5267564;27;20286;-93
2024/04/13 04:13:56;;;;;;;7.35;6.15;;;9.10;99.90;;;;;;5272826;27;20244;-94
2024/04/13 04:16:24;;;;;;;9.93;5.47;;;9.20;99.90;;;;;;5275260;27;20306;-92
2024/04/13 04:18:55;;;;;;;7.07;5.97;;;9.10;99.90;;;;;;5283977;27;20343;-93
2024/04/13 04:21:22;;;;;;;6.38;5.78;;;9.20;99.90;;;;;;5274995;27;20291;-93
2024/04/13 04:23:51;;;;;;;7.57;6.18;;;9.20;99.90;;;;;;5264689;27;20749;-93
2024/04/13 04:26:16;;;;;;;7.35;5.80;;;9.20;99.90;;;;;;5275618;27;22087;-93
2024/04/13 04:28:45;;;;;;;8.30;6.07;;;9.20;99.90;;;;;;5266444;27;20326;-92
2024/04/13 04:31:12;;;;;;;9.40;6.57;;;9.20;99.90;;;;;;5297703;27;20238;-93
2024/04/13 04:33:43;;;;;;;9.57;6.38;;;9.20;99.90;;;;;;5275372;27;20252;-93
2024/04/13 04:36:10;;;;;;;6.45;5.80;;;9.20;99.90;;;;;;5281003;27;20256;-93
2024/04/13 04:38:38;;;;;;;7.45;6.18;;;9.10;99.90;;;;;;5278480;27;20241;-93
2024/04/13 04:41:04;;;;;;;7.20;5.90;;;9.10;99.90;;;;;;5287041;27;20275;-93
2024/04/13 04:43:33;;;;;;;9.75;6.55;;;9.10;99.90;;;;;;5275671;27;20432;-93
2024/04/13 04:45:59;;;;;;;10.25;5.88;;;9.10;99.90;;;;;;5277678;27;20295;-93
2024/04/13 04:48:27;;;;;;;6.60;5.97;;;9.00;99.90;;;;;;5265605;27;20235;-93
2024/04/13 04:51:03;;;;;;;8.85;6.43;;;9.00;99.90;;;;;;5275021;27;20329;-93
2024/04/13 04:53:32;;;;;;;8.70;6.30;;;9.00;99.90;;;;;;5263840;27;20291;-93
2024/04/13 04:55:58;;;;;;;10.52;6.35;;;9.00;99.90;;;;;;5272826;27;20243;-93
2024/04/13 04:58:27;;;;;;;9.57;6.43;;;9.00;99.90;;;;;;5275106;27;20333;-93
2024/04/13 05:00:53;;;;;;;6.47;5.68;;;9.00;99.90;;;;;;5280760;27;20294;-93
2024/04/13 05:03:21;;;;;;;6.32;5.68;;;9.20;99.90;;;;;;5272025;26;20343;-94
2024/04/13 05:05:48;;;;;;;7.45;5.50;;;9.20;99.90;;;;;;5263639;27;20237;-93
2024/04/13 05:08:20;;;;;;;8.32;6.05;;;9.20;99.90;;;;;;5267720;27;20255;-93
2024/04/13 05:10:46;;;;;;;6.63;5.90;;;9.30;99.90;;;;;;5266027;27;20299;-93
2024/04/13 05:13:22;;;;;;;12.30;6.28;;;9.30;99.90;;;;;;5271988;27;20236;-93
2024/04/13 05:15:48;;;;;;;6.72;6.03;;;9.40;99.90;;;;;;5258406;27;20244;-93
2024/04/13 05:18:16;;;;;;;6.80;6.20;;;9.40;99.90;;;;;;5276556;27;20270;-93
2024/04/13 05:20:42;;;;;;;9.88;6.90;;;9.40;99.90;;;;;;5269366;27;20290;-93
2024/04/13 05:23:11;;;;;;;7.18;5.93;;;9.50;99.90;;;;;;5271350;27;20240;-93
2024/04/13 05:25:40;;;;;;;8.63;6.00;;;9.50;99.90;;;;;;5266099;27;20253;-93
2024/04/13 05:28:09;;;;;;;6.03;5.43;;;9.60;99.90;;;;;;5272256;27;20291;-93
2024/04/13 05:30:38;;;;;;;8.13;5.97;;;9.70;99.90;;;;;;5274260;27;20248;-93
2024/04/13 05:33:07;;;;;;;7.25;5.68;;;9.70;99.90;;;;;;5274015;27;20239;-93
2024/04/13 05:35:33;;;;;;;8.68;6.13;;;9.70;99.90;;;;;;5274264;27;20780;-93
2024/04/13 05:38:02;;;;;;;10.77;6.30;;;9.80;99.90;;;;;;5273147;27;20335;-94
2024/04/13 05:40:28;;;;;;;6.95;5.55;;;9.90;99.90;;;;;;5276159;27;20745;-93
2024/04/13 05:42:59;;;;;;;9.15;5.35;;;9.90;99.90;;;;;;5278707;27;20278;-94
2024/04/13 05:45:25;;;;;;;9.20;5.47;;;10.10;99.80;;;;;;5262310;27;20235;-93
2024/04/13 05:47:53;;;;;;;8.52;5.40;;;10.10;99.50;;;;;;5267105;27;20297;-93
2024/04/13 05:50:19;;;;;;;7.78;5.38;;;10.20;99.70;;;;;;5270364;27;21004;-94
2024/04/13 05:52:48;;;;;;;7.13;4.80;;;10.30;99.70;;;;;;5272997;27;20337;-93
2024/04/13 05:55:14;;;;;;;6.05;5.13;;;10.40;99.50;;;;;;5274583;27;20262;-93
2024/04/13 05:57:42;;;;;;;8.30;5.25;;;10.60;99.10;;;;;;5267839;27;20263;-93
2024/04/13 06:00:12;;;;;;;5.63;5.03;;;10.60;99.00;;;;;;5263042;27;20346;-93
2024/04/13 06:02:41;;;;;;;4.97;4.38;;;10.80;98.80;;;;;;5268469;27;20239;-93
2024/04/13 06:05:07;;;;;;;6.80;4.90;;;10.90;98.70;;;;;;5264862;27;20308;-93
2024/04/13 06:07:36;;;;;;;5.68;4.50;;;11.10;98.30;;;;;;5253331;27;20807;-93
2024/04/13 06:10:07;;;;;;;5.13;4.15;;;11.30;97.90;;;;;;5276628;27;20359;-93
2024/04/13 06:12:37;;;;;;;4.93;4.32;;;11.40;97.50;;;;;;5283737;27;20290;-93
2024/04/13 06:15:05;;;;;;;6.22;4.20;;;11.70;96.40;;;;;;5274269;27;20307;-93
2024/04/13 06:17:37;;;;;;;5.78;4.00;;;12.10;95.30;;;;;;5283861;27;20804;-94
2024/04/13 06:20:04;;;;;;;8.25;4.40;;;12.80;94.00;;;;;;5274866;27;20705;-93
2024/04/13 06:22:35;;;;;;;5.20;3.97;;;13.50;91.80;;;;;;5263188;27;20236;-93
2024/04/13 06:25:03;;;;;;;4.85;3.70;;;13.70;90.50;;;;;;5267259;27;20246;-93
2024/04/13 06:27:36;;;;;;;5.32;4.07;;;13.80;90.10;;;;;;5270340;27;20237;-93
2024/04/13 06:30:05;;;;;;;6.65;3.92;;;13.90;90.20;;;;;;5263709;27;20348;-93
2024/04/13 06:32:37;;;;;;;7.03;3.50;;;13.90;90.40;;;;;;5232007;27;20833;-93
2024/04/13 06:35:03;;;;;;;4.18;3.53;;;14.00;88.10;;;;;;5273498;27;20341;-93
2024/04/13 06:37:34;;;;;;;4.35;3.28;;;14.10;87.00;;;;;;5266868;27;20253;-93
2024/04/13 06:40:00;;;;;;;7.63;3.50;;;14.20;86.20;;;;;;5275201;27;20295;-93
2024/04/13 06:42:29;;;;;;;6.03;3.75;;;14.20;86.60;;;;;;5278281;27;20233;-93
2024/04/13 06:44:55;;;;;;;3.33;2.90;;;14.20;86.50;;;;;;5457878;22;20315;-91
2024/04/13 06:47:24;;;;;;;5.93;3.25;;;14.40;86.60;;;;;;5243547;27;20237;-93
2024/04/13 06:49:53;;;;;;;4.55;3.30;;;14.50;84.50;;;;;;5218332;27;20249;-90
2024/04/13 06:52:22;;;;;;;5.18;3.30;;;14.90;81.60;;;;;;5205660;27;20247;-90
2024/04/13 06:54:47;;;;;;;3.50;3.17;;;15.50;77.60;;;;;;5196680;27;20309;-91
2024/04/13 06:57:17;;;;;;;3.88;2.90;;;15.90;72.40;;;;;;5206939;27;20673;-88
2024/04/13 06:59:44;;;;;;;4.60;2.92;;;16.00;67.50;;;;;;5194187;27;20315;-89
2024/04/13 07:02:15;;;;;;;6.07;3.20;;;16.00;68.00;;;;;;5200432;27;20623;-87
2024/04/13 07:04:41;;;;;;;3.33;2.90;;;15.90;70.60;;;;;;5204779;27;20246;-89
2024/04/13 07:07:13;;;;;;;4.05;2.97;;;16.00;72.40;;;;;;5194620;27;20264;-91
2024/04/13 07:09:39;;;;;;;2.95;2.60;;;16.10;71.60;;;;;;5204076;27;20276;-89
2024/04/13 07:12:08;;;;;;;5.18;2.72;;;16.20;71.00;;;;;;5201534;27;20705;-90
2024/04/13 07:14:34;;;;;;;5.47;3.08;;;16.30;69.70;;;;;;5208495;27;21835;-93
2024/04/13 07:17:04;;;;;;;3.20;2.65;;;16.40;70.60;;;;;;5211951;27;20281;-93
2024/04/13 07:19:30;;;;;;;3.85;3.00;;;16.40;68.70;;;;;;5211326;27;20241;-92
2024/04/13 07:21:59;;;;;;;4.43;2.72;;;16.50;66.30;;;;;;5194097;27;20266;-92
2024/04/13 07:24:30;;;;;;;6.05;2.70;;;16.50;66.30;;;;;;5205233;27;20241;-92
2024/04/13 07:26:59;;;;;;;3.08;2.88;;;16.50;64.60;;;;;;5212192;27;20242;-91
2024/04/13 07:29:24;;;;;;;4.75;3.25;;;16.50;65.00;;;;;;5207989;27;20249;-88
2024/04/13 07:31:53;;;;;;;8.25;7.32;;;16.60;64.70;;;;;;5189781;27;20269;-92
2024/04/13 07:34:19;;;;;;;11.73;9.60;;;16.70;63.40;;;;;;5199478;27;20242;-90
2024/04/13 07:36:48;;;;;;;9.77;7.53;;;16.80;61.80;;;;;;5196064;27;20838;-90
2024/04/13 07:39:14;;;;;;;7.65;4.60;;;16.90;60.70;;;;;;5189047;27;20241;-91
2024/04/13 07:54:57;;;;;;;4.63;3.80;;;17.30;54.30;;;;;;5302708;20;26148496;-91
2024/04/13 08:02:37;;;;;;;8.80;4.32;;;17.80;48.50;;;;;;6463436;21;20296;-90
2024/04/13 08:05:03;;;;;;;4.93;3.50;;;17.80;47.30;;;;;;6483797;22;20326;-89
2024/04/13 08:07:32;;;;;;;7.28;3.38;;;17.80;50.80;;;;;;6496319;22;20261;-91
2024/04/13 08:10:00;;;;;;;8.02;4.45;;;17.90;49.70;;;;;;6443490;21;20355;-91
2024/04/13 08:15:08;;;;;;;5.95;3.85;;;17.90;46.20;;;;;;6469935;21;20282;-92
2024/04/13 08:17:34;;;;;;;5.03;3.60;;;18.00;48.30;;;;;;6499674;22;20270;-92
2024/04/13 08:20:04;;;;;;;4.97;3.28;;;18.00;47.30;;;;;;6505822;22;20215;-92
2024/04/13 08:22:30;;;;;;;4.60;3.25;;;18.00;46.50;;;;;;6478408;21;20286;-93
2024/04/13 08:24:59;;;;;;;4.80;3.28;;;18.00;47.80;;;;;;6456110;22;20237;-91
2024/04/13 08:27:27;;;;;;;6.63;3.47;;;18.00;47.10;;;;;;6488537;22;20356;-91
2024/04/13 08:29:56;;;;;;;4.80;3.33;;;18.10;47.10;;;;;;6471088;21;20941;-89
2024/04/13 08:32:22;;;;;;;7.13;3.40;;;18.10;46.80;;;;;;6473856;22;20223;-89
2024/04/13 08:34:53;;;;;;;4.15;3.30;;;18.30;45.90;;;;;;6475625;22;20265;-89
2024/04/13 08:37:20;;;;;;;4.22;3.58;;;18.50;45.60;;;;;;6472666;22;20223;-89
2024/04/13 08:39:49;;;;;;;5.78;3.55;;;18.60;42.50;;;;;;6474178;22;20239;-88
2024/04/13 08:42:23;;;;;;;6.18;4.10;;;18.80;43.90;;;;;;6472323;22;20317;-89
2024/04/13 08:44:56;;;;;;;5.28;3.53;;;19.10;40.40;;;;;;6477042;22;20261;-90
2024/04/13 08:47:26;;;;;;;4.63;3.90;;;19.10;40.70;;;;;;6474413;22;20227;-90
2024/04/13 08:49:57;;;;;;;8.23;3.78;;;19.10;39.20;;;;;;6475516;22;20227;-91
2024/04/13 08:52:22;;;;;;;6.97;3.60;;;19.20;39.30;;;;;;6491772;22;20223;-90
2024/04/13 08:54:51;;;;;;;6.28;3.90;;;19.60;38.40;;;;;;6492558;22;20318;-91
2024/04/13 08:57:24;;;;;;;8.82;3.65;;;20.10;33.00;;;;;;6427146;22;20343;-89
2024/04/13 08:59:55;;;;;;;6.78;3.45;;;20.60;32.50;;;;;;6474200;22;20633;-89
2024/04/13 09:02:22;;;;;;;6.43;3.95;;;21.00;30.30;;;;;;6473351;22;20217;-91
2024/04/13 09:04:52;;;;;;;5.22;3.65;;;21.00;32.10;;;;;;6428886;22;20223;-90
2024/04/13 09:10:00;;;;;;;5.90;4.43;;;21.50;25.80;;;;;;6444275;21;20407;-91
2024/04/13 09:12:26;;;;;;;4.75;3.85;;;21.70;24.60;;;;;;6425686;22;20229;-86
2024/04/13 09:14:57;;;;;;;5.47;3.40;;;22.10;23.80;;;;;;6470298;22;20318;-89
2024/04/13 09:17:23;;;;;;;6.68;4.00;;;22.70;21.80;;;;;;6469757;22;20231;-90
2024/04/13 09:19:53;;;;;;;6.65;4.15;;;24.20;18.20;;;;;;6469784;22;20265;-91
2024/04/13 09:22:22;;;;;;;7.53;3.80;;;25.40;14.30;;;;;;6469354;22;20307;-90
2024/04/13 09:24:50;;;;;;;4.55;4.10;;;26.10;14.70;;;;;;6472223;22;20666;-90
2024/04/13 09:27:16;;;;;;;5.63;4.13;;;26.40;11.80;;;;;;6473398;22;20230;-92
2024/04/13 09:29:45;;;;;;;6.15;4.43;;;27.30;10.90;;;;;;6478381;22;20223;-92
2024/04/13 09:32:23;;;;;;;6.03;4.40;;;28.10;9.10;;;;;;6478620;22;20358;-92
2024/04/13 09:34:52;;;;;;;4.45;4.03;;;28.80;7.30;;;;;;6433912;22;20234;-92
2024/04/13 09:37:18;;;;;;;6.18;4.63;;;29.10;6.60;;;;;;6479285;22;20286;-94
2024/04/13 09:39:46;;;;;;;9.25;5.13;;;28.50;6.30;;;;;;6480281;22;20227;-91
2024/04/13 09:42:13;;;;;;;6.68;4.47;;;28.40;6.20;;;;;;6488284;22;20235;-94
2024/04/13 09:44:42;;;;;;;8.40;4.82;;;27.60;7.80;;;;;;6487023;22;20246;-94
2024/04/13 09:47:08;;;;;;;6.25;4.47;;;27.50;7.00;;;;;;6482176;22;20283;-94
2024/04/13 09:49:40;;;;;;;5.32;3.95;;;27.40;7.80;;;;;;6482325;22;20410;-94
2024/04/13 09:52:06;;;;;;;8.02;4.13;;;27.70;6.50;;;;;;6481396;22;20315;-94
2024/04/13 09:54:36;;;;;;;5.57;4.07;;;27.60;6.20;;;;;;6480910;22;20290;-93
2024/04/13 09:57:02;;;;;;;5.30;4.30;;;28.30;6.20;;;;;;6432421;22;20311;-94
2024/04/13 09:59:34;;;;;;;6.30;4.40;;;29.70;3.60;;;;;;6476688;22;20239;-93
2024/04/13 10:02:00;;;;;;;8.57;4.70;;;30.20;3.60;;;;;;6476332;22;20294;-93
2024/04/13 10:04:28;;;;;;;8.00;4.65;;;29.90;2.80;;;;;;6477018;22;20318;-93
2024/04/13 10:06:59;;;;;;;4.78;4.22;;;29.80;3.30;;;;;;6473880;22;20227;-93
2024/04/13 10:09:28;;;;;;;9.65;4.93;;;30.30;2.00;;;;;;6470311;22;20318;-94
2024/04/13 10:11:56;;;;;;;6.60;4.40;;;30.60;2.70;;;;;;6480079;22;20329;-92
2024/04/13 10:14:26;;;;;;;5.65;4.78;;;29.90;2.10;;;;;;6476160;22;20273;-94
2024/04/13 10:16:55;;;;;;;6.22;4.50;;;29.50;4.30;;;;;;6486810;22;20275;-96
2024/04/13 10:19:25;;;;;;;7.15;4.60;;;29.20;3.30;;;;;;6485050;21;20276;-92
2024/04/13 10:22:04;;;;;;;8.32;4.20;;;29.00;4.10;;;;;;6442534;21;20306;-95
2024/04/13 11:04:27;;;;;;;6.88;3.58;;;27.40;5.60;;;;;;6443034;21;20246;31
2024/04/13 11:06:56;;;;;;;5.25;3.78;;;28.30;3.00;;;;;;6472375;22;21146;-91
2024/04/13 11:09:24;;;;;;;5.70;3.05;;;27.70;5.00;;;;;;6472454;22;20226;-89
2024/04/13 11:11:52;;;;;;;7.55;3.30;;;27.50;4.30;;;;;;6478780;22;20270;-91
2024/04/13 11:14:20;;;;;;;5.38;3.10;;;27.50;4.20;;;;;;6485108;22;20265;-91
2024/04/13 11:16:46;;;;;;;5.95;3.17;;;27.10;5.50;;;;;;6478043;22;20244;-89
2024/04/13 11:19:15;;;;;;;6.43;3.58;;;26.80;5.50;;;;;;6472031;22;20270;-88
2024/04/13 11:21:41;;;;;;;3.42;2.80;;;26.30;6.40;;;;;;6433042;22;20266;-88
2024/04/13 11:24:14;;;;;;;6.57;3.22;;;26.00;6.50;;;;;;6478114;22;20669;-87
2024/04/13 11:26:39;;;;;;;11.13;3.20;;;25.90;8.50;;;;;;6475712;22;20294;-90
2024/04/13 11:29:08;;;;;;;5.28;2.53;;;25.70;8.50;;;;;;6476468;22;20227;-90
2024/04/13 11:31:34;;;;;;;6.03;2.95;;;25.60;7.00;;;;;;6474031;22;20341;-87
2024/04/13 11:34:04;;;;;;;5.25;2.80;;;25.40;8.50;;;;;;6475286;22;20223;-90
2024/04/13 11:36:29;;;;;;;4.50;2.88;;;25.50;7.70;;;;;;6446676;22;20243;-91
2024/04/13 11:38:58;;;;;;;6.18;3.17;;;25.60;8.30;;;;;;6473005;21;20243;-92
2024/04/13 12:07:24;;;;;;;9.15;3.05;;;25.40;8.60;;;;;;6457368;21;20267;-88
2024/04/13 12:09:50;;;;;;;9.75;2.80;;;25.50;7.30;;;;;;6470930;22;20332;-88
2024/04/13 12:12:18;;;;;;;6.90;2.75;;;25.80;7.20;;;;;;6473600;22;20235;-88
2024/04/13 12:14:46;;;;;;;4.57;2.28;;;25.80;9.00;;;;;;6473322;22;20332;-88
2024/04/13 12:17:15;;;;;;;5.22;2.50;;;25.80;6.60;;;;;;6474445;22;20287;-88
2024/04/13 12:19:41;;;;;;;4.65;2.35;;;25.50;6.20;;;;;;6473334;22;20228;-88
2024/04/13 12:22:10;;;;;;;5.78;2.25;;;25.20;6.80;;;;;;6473240;22;20271;-88
2024/04/13 12:24:38;;;;;;;4.22;2.38;;;25.20;7.60;;;;;;6373244;22;20357;-88
2024/04/13 12:27:07;;;;;;;2.90;2.15;;;25.30;7.80;;;;;;6374514;22;20229;-88
2024/04/13 12:29:33;;;;;;;5.95;2.50;;;25.20;7.20;;;;;;6374982;22;20789;-88
2024/04/13 12:32:02;;;;;;;3.67;2.22;;;25.10;8.70;;;;;;6376268;22;20237;-88
2024/04/13 12:34:28;;;;;;;5.13;1.90;;;24.90;8.20;;;;;;6333000;22;20700;-88
2024/04/13 12:37:00;;;;;;;2.97;1.95;;;25.00;9.00;;;;;;6374575;22;20272;-88
2024/04/13 12:39:27;;;;;;;4.70;2.20;;;25.10;7.10;;;;;;6374813;22;20537;-88
2024/04/13 12:42:00;;;;;;;2.35;1.95;;;25.10;6.00;;;;;;6374001;22;20229;-88
2024/04/13 12:44:28;;;;;;;3.90;1.90;;;25.10;5.30;;;;;;6376248;22;20342;-88
2024/04/13 12:46:57;;;;;;;3.40;1.73;;;25.00;5.40;;;;;;6376610;22;20678;-88
2024/04/13 12:49:26;;;;;;;4.45;1.92;;;25.10;5.90;;;;;;6376476;22;20276;-88
2024/04/13 12:51:55;;;;;;;2.42;1.80;;;25.20;6.20;;;;;;6331485;22;20242;-88
2024/04/13 12:54:21;;;;;;;6.57;2.22;;;25.30;8.40;;;;;;6375089;22;20284;-89
2024/04/13 12:56:49;;;;;;;3.10;2.00;;;25.40;7.30;;;;;;6374403;22;20639;-88
2024/04/13 12:59:18;;;;;;;4.43;2.17;;;25.40;7.90;;;;;;6375497;22;20293;-88
2024/04/13 13:01:46;;;;;;;4.35;2.00;;;25.40;7.90;;;;;;6375770;22;20281;-88
2024/04/13 13:04:12;;;;;;;2.95;2.00;;;25.30;5.50;;;;;;6375179;22;20225;-88
2024/04/13 13:06:41;;;;;;;4.97;1.90;;;25.40;7.40;;;;;;6375846;22;20237;-88
2024/04/13 13:09:07;;;;;;;5.22;2.67;;;25.30;5.10;;;;;;6374259;22;20225;-88
2024/04/13 13:11:36;;;;;;;5.97;2.30;;;25.10;5.00;;;;;;6332095;22;20264;-88
2024/04/13 13:14:02;;;;;;;2.70;1.95;;;25.20;5.30;;;;;;6375409;22;20221;-88
2024/04/13 13:16:33;;;;;;;3.97;1.80;;;25.20;4.70;;;;;;6375088;22;20696;-87
2024/04/13 13:18:59;;;;;;;3.50;2.08;;;25.20;4.60;;;;;;6375657;22;20293;-88
2024/04/13 13:21:29;;;;;;;4.13;2.97;;;25.30;5.00;;;;;;6367808;22;20736;-91
2024/04/13 13:23:55;;;;;;;4.47;1.80;;;25.30;7.50;;;;;;6384946;22;20537;-90
2024/04/13 13:26:24;;;;;;;1.95;1.75;;;25.50;4.30;;;;;;6375802;22;20271;-90
2024/04/13 13:28:50;;;;;;;3.28;1.92;;;25.50;3.20;;;;;;6375590;22;20260;-91
2024/04/13 13:31:19;;;;;;;3.95;1.73;;;25.40;2.80;;;;;;6379690;22;20588;-90
2024/04/13 13:33:47;;;;;;;3.65;1.77;;;25.60;3.60;;;;;;6374978;22;20345;-89
2024/04/13 13:36:16;;;;;;;7.03;2.55;;;25.70;2.30;;;;;;6374477;22;20792;-87
2024/04/13 13:38:41;;;;;;;2.72;2.03;;;25.60;3.10;;;;;;6368249;22;20360;-87
2024/04/13 13:41:10;;;;;;;4.05;1.67;;;25.70;3.40;;;;;;6286849;22;20233;-87
2024/04/13 13:43:36;;;;;;;5.18;2.58;;;25.60;3.70;;;;;;6327366;22;20225;-85
2024/04/13 13:46:05;;;;;;;2.75;2.30;;;25.40;2.50;;;;;;6367079;22;20265;-85
2024/04/13 13:48:31;;;;;;;10.00;9.00;;;25.40;1.90;;;;;;6366102;22;20229;-85
2024/04/13 13:51:02;;;;;;;2.58;2.05;;;25.50;1.00;;;;;;6367003;22;20301;-86
2024/04/13 13:53:28;;;;;;;2.42;2.08;;;25.40;2.50;;;;;;6366095;22;20234;-86
2024/04/13 13:55:57;;;;;;;3.35;2.08;;;25.30;1.90;;;;;;6324659;22;20264;-85
2024/04/13 13:58:23;;;;;;;2.47;2.00;;;25.60;1.10;;;;;;6326430;22;20229;-85
2024/04/13 14:00:54;;;;;;;2.15;1.92;;;25.70;2.50;;;;;;6372947;22;20272;-85
2024/04/13 14:03:20;;;;;;;5.25;1.88;;;25.60;2.40;;;;;;6373820;22;20323;-86
2024/04/13 14:05:49;;;;;;;6.88;1.70;;;25.50;1.90;;;;;;6332059;22;20229;-85
2024/04/13 14:08:17;;;;;;;3.53;1.85;;;25.30;2.10;;;;;;6374059;22;20350;-86
2024/04/13 14:10:46;;;;;;;2.63;1.52;;;25.20;2.90;;;;;;6372910;22;20324;-86
2024/04/13 14:13:12;;;;;;;3.25;2.08;;;25.20;3.70;;;;;;6374581;22;20590;-86
2024/04/13 14:15:40;;;;;;;5.07;2.10;;;25.30;3.80;;;;;;6374368;22;20527;-86
2024/04/13 14:18:06;;;;;;;1.80;1.70;;;25.30;3.60;;;;;;6371213;22;20659;-85
2024/04/13 14:20:35;;;;;;;4.90;1.80;;;25.30;4.70;;;;;;6372138;22;20224;-86
2024/04/13 14:23:01;;;;;;;5.22;2.00;;;25.20;4.20;;;;;;6370690;22;20350;-86
2024/04/13 14:25:32;;;;;;;3.22;2.15;;;25.20;5.00;;;;;;6367678;22;20241;-86